createdAt,value
2023-04-22T00:00:14.741Z,17.10
2023-04-22T00:02:42.076Z,23.90
2023-04-22T00:05:12.878Z,17.90
2023-04-22T00:07:42.661Z,20.20
2023-04-22T00:10:10.613Z,22.20
2023-04-22T00:12:42.522Z,19.20
2023-04-22T00:15:10.347Z,18.60
2023-04-22T00:17:37.870Z,16.20
2023-04-22T00:20:07.320Z,22.90
2023-04-22T00:22:34.499Z,27.00
2023-04-22T00:25:01.703Z,22.60
2023-04-22T00:27:29.209Z,20.70
2023-04-22T00:29:58.793Z,19.00
2023-04-22T00:32:29.851Z,22.40
2023-04-22T00:34:58.234Z,22.20
2023-04-22T00:37:26.361Z,18.60
2023-04-22T00:39:53.414Z,19.60
2023-04-22T00:42:20.966Z,22.60
2023-04-22T00:44:50.858Z,20.70
2023-04-22T00:47:22.169Z,14.90
2023-04-22T00:49:49.147Z,19.80
2023-04-22T00:52:16.125Z,16.70
2023-04-22T00:54:43.207Z,17.00
2023-04-22T00:57:10.938Z,15.90
2023-04-22T00:59:38.301Z,18.70
2023-04-22T01:02:06.169Z,24.40
2023-04-22T01:04:34.204Z,19.60
2023-04-22T01:07:01.425Z,16.90
2023-04-22T01:09:28.561Z,12.50
2023-04-22T01:11:56.004Z,15.10
2023-04-22T01:14:24.433Z,21.30
2023-04-22T01:16:53.575Z,14.30
2023-04-22T01:19:21.025Z,18.30
2023-04-22T01:21:50.818Z,18.30
2023-04-22T01:24:18.176Z,21.40
2023-04-22T01:26:48.134Z,14.50
2023-04-22T01:29:16.080Z,13.80
2023-04-22T01:31:46.114Z,15.20
2023-04-22T01:34:15.297Z,13.70
2023-04-22T01:36:42.508Z,28.50
2023-04-22T01:39:09.592Z,16.70
2023-04-22T01:41:36.633Z,15.70
2023-04-22T01:44:04.383Z,16.30
2023-04-22T01:46:33.063Z,18.10
2023-04-22T01:49:00.309Z,14.50
2023-04-22T01:51:27.488Z,21.00
2023-04-22T01:53:56.117Z,13.90
2023-04-22T01:56:26.779Z,14.20
2023-04-22T01:58:53.752Z,13.60
2023-04-22T02:01:21.129Z,18.60
2023-04-22T02:03:50.564Z,15.70
2023-04-22T02:06:20.025Z,15.80
2023-04-22T02:08:46.996Z,14.60
2023-04-22T02:11:17.155Z,20.60
2023-04-22T02:13:45.973Z,17.40
2023-04-22T02:16:14.607Z,19.40
2023-04-22T02:18:43.168Z,15.50
2023-04-22T02:21:10.264Z,15.00
2023-04-22T02:23:38.650Z,15.90
2023-04-22T02:26:05.781Z,17.30
2023-04-22T02:28:33.332Z,16.30
2023-04-22T02:31:00.780Z,16.80
2023-04-22T02:33:27.878Z,16.80
2023-04-22T02:35:55.021Z,34.20
2023-04-22T02:38:26.618Z,18.00
2023-04-22T02:40:53.902Z,16.90
2023-04-22T02:43:22.511Z,19.40
2023-04-22T02:45:51.835Z,15.80
2023-04-22T02:48:19.468Z,13.20
2023-04-22T02:50:47.853Z,14.40
2023-04-22T02:53:17.943Z,30.10
2023-04-22T02:55:45.617Z,25.10
2023-04-22T02:58:12.682Z,21.30
2023-04-22T03:00:39.917Z,20.30
2023-04-22T03:03:07.324Z,21.70
2023-04-22T03:05:35.457Z,14.60
2023-04-22T03:08:02.795Z,15.50
2023-04-22T03:10:33.544Z,19.60
2023-04-22T03:13:04.064Z,16.60
2023-04-22T03:15:32.051Z,13.10
2023-04-22T03:18:00.124Z,14.90
2023-04-22T03:20:29.177Z,18.00
2023-04-22T03:22:56.233Z,17.50
2023-04-22T03:25:25.149Z,15.30
2023-04-22T03:27:54.170Z,19.30
2023-04-22T03:30:25.367Z,18.10
2023-04-22T03:32:53.181Z,17.30
2023-04-22T03:35:25.470Z,14.70
2023-04-22T03:37:53.731Z,13.20
2023-04-22T03:40:29.228Z,16.50
2023-04-22T03:42:57.564Z,14.60
2023-04-22T03:45:28.253Z,17.30
2023-04-22T03:48:10.274Z,14.70
2023-04-22T03:50:42.143Z,13.10
2023-04-22T03:53:09.177Z,24.80
2023-04-22T03:55:36.912Z,18.50
2023-04-22T03:58:05.288Z,14.10
2023-04-22T04:00:35.854Z,12.80
2023-04-22T04:03:09.044Z,18.20
2023-04-22T04:05:36.894Z,15.70
2023-04-22T04:08:07.902Z,14.30
2023-04-22T04:10:36.611Z,20.10
2023-04-22T04:13:04.893Z,14.90
2023-04-22T04:15:39.602Z,21.60
2023-04-22T04:18:07.568Z,16.00
2023-04-22T04:20:35.076Z,15.40
2023-04-22T04:23:02.018Z,14.40
2023-04-22T04:25:37.132Z,14.50
2023-04-22T04:28:11.563Z,16.90
2023-04-22T04:30:41.187Z,13.10
2023-04-22T04:33:11.685Z,11.40
2023-04-22T04:35:42.775Z,17.00
2023-04-22T04:38:12.299Z,20.80
2023-04-22T04:40:40.244Z,13.80
2023-04-22T04:43:15.633Z,21.10
2023-04-22T04:45:48.753Z,14.80
2023-04-22T04:48:24.593Z,15.70
2023-04-22T04:50:53.817Z,16.90
2023-04-22T04:53:22.784Z,15.80
2023-04-22T04:55:50.373Z,20.00
2023-04-22T04:58:21.407Z,16.70
2023-04-22T05:00:52.329Z,13.20
2023-04-22T05:03:20.291Z,20.50
2023-04-22T05:05:56.666Z,18.10
2023-04-22T05:08:25.650Z,30.60
2023-04-22T05:10:55.674Z,18.70
2023-04-22T05:13:22.823Z,32.30
2023-04-22T05:15:50.983Z,14.40
2023-04-22T05:18:19.056Z,16.10
2023-04-22T05:20:46.298Z,16.30
2023-04-22T05:23:13.761Z,21.80
2023-04-22T05:25:40.851Z,15.50
2023-04-22T05:28:11.337Z,16.00
2023-04-22T05:30:45.030Z,14.80
2023-04-22T05:33:12.417Z,14.20
2023-04-22T05:35:43.686Z,27.70
2023-04-22T05:38:11.207Z,16.30
2023-04-22T05:40:40.422Z,21.70
2023-04-22T05:43:09.595Z,18.50
2023-04-22T05:45:45.713Z,19.50
2023-04-22T05:48:14.352Z,13.00
2023-04-22T05:50:50.652Z,16.70
2023-04-22T05:53:18.554Z,17.80
2023-04-22T05:55:45.598Z,13.00
2023-04-22T05:58:12.860Z,14.60
2023-04-22T06:00:48.845Z,15.30
2023-04-22T06:03:34.871Z,15.30
2023-04-22T06:06:02.567Z,18.30
2023-04-22T06:08:32.327Z,13.00
2023-04-22T06:11:01.474Z,15.20
2023-04-22T06:13:33.057Z,18.10
2023-04-22T06:16:04.760Z,35.60
2023-04-22T06:18:35.998Z,21.80
2023-04-22T06:21:04.610Z,25.00
2023-04-22T06:23:32.907Z,15.10
2023-04-22T06:26:01.066Z,21.20
2023-04-22T06:28:30.835Z,15.80
2023-04-22T06:31:01.725Z,20.00
2023-04-22T06:33:29.992Z,14.70
2023-04-22T06:35:57.069Z,21.60
2023-04-22T06:38:25.215Z,16.40
2023-04-22T06:41:32.314Z,16.20
2023-04-22T06:46:48.932Z,22.90
2023-04-22T06:49:37.994Z,18.20
2023-04-22T06:52:34.646Z,17.10
2023-04-22T06:55:05.957Z,14.40
2023-04-22T06:57:33.679Z,12.60
2023-04-22T07:00:00.931Z,13.80
2023-04-22T07:02:28.047Z,12.60
2023-04-22T07:04:55.239Z,16.10
2023-04-22T07:07:26.069Z,20.60
2023-04-22T07:09:53.312Z,14.10
2023-04-22T07:12:20.820Z,12.50
2023-04-22T07:14:49.028Z,15.30
2023-04-22T07:17:18.907Z,14.10
2023-04-22T07:19:45.907Z,12.70
2023-04-22T07:22:12.973Z,13.00
2023-04-22T07:24:40.580Z,11.40
2023-04-22T07:27:08.142Z,13.40
2023-04-22T07:29:35.989Z,13.40
2023-04-22T07:32:03.046Z,15.30
2023-04-22T07:34:30.562Z,18.60
2023-04-22T07:36:57.641Z,13.80
2023-04-22T07:39:26.166Z,11.00
2023-04-22T07:41:53.313Z,17.30
2023-04-22T07:44:21.166Z,18.90
2023-04-22T07:46:48.256Z,11.30
2023-04-22T07:49:16.782Z,15.40
2023-04-22T07:51:44.468Z,18.70
2023-04-22T07:54:12.641Z,11.10
2023-04-22T07:56:41.405Z,17.80
2023-04-22T07:59:08.402Z,18.40
2023-04-22T08:01:35.691Z,11.00
2023-04-22T08:04:03.046Z,14.80
2023-04-22T08:06:31.494Z,13.70
2023-04-22T08:08:58.681Z,10.20
2023-04-22T08:11:26.358Z,11.80
2023-04-22T08:13:53.487Z,17.70
2023-04-22T08:16:20.576Z,14.60
2023-04-22T08:18:47.717Z,10.70
2023-04-22T08:21:14.967Z,12.50
2023-04-22T08:23:42.090Z,10.40
2023-04-22T08:26:11.434Z,14.30
2023-04-22T08:28:39.771Z,11.80
2023-04-22T08:31:08.838Z,8.80
2023-04-22T08:33:36.487Z,14.20
2023-04-22T08:36:04.132Z,9.90
2023-04-22T08:38:33.593Z,8.90
2023-04-22T08:41:02.846Z,12.30
2023-04-22T08:43:31.215Z,13.70
2023-04-22T08:45:58.985Z,7.50
2023-04-22T08:48:29.593Z,10.50
2023-04-22T08:50:56.952Z,15.20
2023-04-22T08:53:24.918Z,8.00
2023-04-22T08:55:53.507Z,11.50
2023-04-22T08:58:21.384Z,7.90
2023-04-22T09:00:48.524Z,12.30
2023-04-22T09:03:16.007Z,8.40
2023-04-22T09:05:43.151Z,6.90
2023-04-22T09:08:11.465Z,7.30
2023-04-22T09:10:38.618Z,8.80
2023-04-22T09:13:07.402Z,9.20
2023-04-22T09:15:34.606Z,11.90
2023-04-22T09:18:03.084Z,9.40
2023-04-22T09:20:30.520Z,10.70
2023-04-22T09:23:04.637Z,11.10
2023-04-22T09:25:34.837Z,13.40
2023-04-22T09:28:06.061Z,7.90
2023-04-22T09:30:35.483Z,12.30
2023-04-22T09:33:04.525Z,6.30
2023-04-22T09:35:35.668Z,10.80
2023-04-22T09:38:07.301Z,5.80
2023-04-22T09:40:35.477Z,6.40
2023-04-22T09:43:05.733Z,9.60
2023-04-22T09:46:56.240Z,13.10
2023-04-22T09:49:25.280Z,5.90
2023-04-22T09:51:57.711Z,19.80
2023-04-22T09:54:26.683Z,22.30
2023-04-22T09:56:55.878Z,6.90
2023-04-22T09:59:32.161Z,14.00
2023-04-22T10:02:03.750Z,5.40
2023-04-22T10:04:32.736Z,12.40
2023-04-22T10:07:03.129Z,8.70
2023-04-22T10:09:32.022Z,14.10
2023-04-22T10:12:01.918Z,8.90
2023-04-22T10:14:32.136Z,14.60
2023-04-22T10:17:02.519Z,9.40
2023-04-22T10:19:31.840Z,10.40
2023-04-22T10:22:02.087Z,7.00
2023-04-22T10:24:35.906Z,10.40
2023-04-22T10:27:10.798Z,8.20
2023-04-22T10:29:42.380Z,11.10
2023-04-22T10:32:12.079Z,6.90
2023-04-22T10:34:41.486Z,7.80
2023-04-22T10:37:11.823Z,8.20
2023-04-22T10:39:45.373Z,4.10
2023-04-22T10:42:18.093Z,5.80
2023-04-22T10:44:54.001Z,10.00
2023-04-22T10:47:37.780Z,6.70
2023-04-22T10:50:09.966Z,11.10
2023-04-22T10:52:42.700Z,4.90
2023-04-22T10:55:15.500Z,7.10
2023-04-22T10:57:46.405Z,7.70
2023-04-22T11:00:35.369Z,10.80
2023-04-22T11:03:13.491Z,10.20
2023-04-22T11:05:43.158Z,7.20
2023-04-22T11:08:20.784Z,5.20
2023-04-22T11:11:08.269Z,5.70
2023-04-22T11:13:38.137Z,10.20
2023-04-22T11:16:06.741Z,11.10
2023-04-22T11:18:35.718Z,6.50
2023-04-22T11:21:06.647Z,5.40
2023-04-22T11:23:36.051Z,7.10
2023-04-22T11:26:08.386Z,7.00
2023-04-22T11:28:46.591Z,7.90
2023-04-22T11:31:15.828Z,9.40
2023-04-22T11:33:44.611Z,10.20
2023-04-22T11:36:15.486Z,7.70
2023-04-22T11:38:48.133Z,7.90
2023-04-22T11:41:21.779Z,6.90
2023-04-22T11:43:50.185Z,5.50
2023-04-22T11:46:30.925Z,9.60
2023-04-22T11:49:13.864Z,6.60
2023-04-22T11:51:56.114Z,6.90
2023-04-22T11:54:36.161Z,11.20
2023-04-22T11:57:08.829Z,7.90
2023-04-22T12:02:20.885Z,12.20
2023-04-22T12:04:49.410Z,8.30
2023-04-22T12:07:20.015Z,9.20
2023-04-22T12:09:54.424Z,6.30
2023-04-22T12:12:28.940Z,4.80
2023-04-22T12:14:58.626Z,5.50
2023-04-22T12:17:27.004Z,10.60
2023-04-22T12:19:57.392Z,7.00
2023-04-22T12:22:31.152Z,6.70
2023-04-22T12:25:00.521Z,6.80
2023-04-22T12:27:29.458Z,9.00
2023-04-22T12:30:05.602Z,6.70
2023-04-22T12:32:36.889Z,7.20
2023-04-22T12:35:05.601Z,6.30
2023-04-22T12:37:35.995Z,5.50
2023-04-22T12:40:06.845Z,10.10
2023-04-22T12:42:35.314Z,8.70
2023-04-22T12:45:04.426Z,8.20
2023-04-22T12:47:33.258Z,6.50
2023-04-22T12:50:06.477Z,7.80
2023-04-22T12:52:35.970Z,13.20
2023-04-22T12:55:05.088Z,9.60
2023-04-22T12:57:34.426Z,10.00
2023-04-22T13:00:07.494Z,8.20
2023-04-22T13:02:38.235Z,8.40
2023-04-22T13:05:07.835Z,7.80
2023-04-22T13:07:36.481Z,7.20
2023-04-22T13:10:06.976Z,5.80
2023-04-22T13:12:37.290Z,10.20
2023-04-22T13:15:08.263Z,11.30
2023-04-22T13:17:37.979Z,8.50
2023-04-22T13:20:09.718Z,6.40
2023-04-22T13:22:40.716Z,6.00
2023-04-22T13:25:09.364Z,10.00
2023-04-22T13:27:38.011Z,6.10
2023-04-22T13:30:08.195Z,42.70
2023-04-22T13:32:38.943Z,9.00
2023-04-22T13:35:09.443Z,7.50
2023-04-22T13:37:38.353Z,14.20
2023-04-22T13:40:09.427Z,6.10
2023-04-22T13:42:38.057Z,10.50
2023-04-22T13:45:10.036Z,12.90
2023-04-22T13:47:39.133Z,11.70
2023-04-22T13:50:08.067Z,11.80
2023-04-22T13:52:36.650Z,9.70
2023-04-22T13:55:05.711Z,7.60
2023-04-22T13:57:34.910Z,9.40
2023-04-22T14:00:03.703Z,4.60
2023-04-22T14:02:41.998Z,5.40
2023-04-22T14:05:11.059Z,7.20
2023-04-22T14:07:39.450Z,8.10
2023-04-22T14:10:09.506Z,6.10
2023-04-22T14:12:38.362Z,9.70
2023-04-22T14:15:11.334Z,6.50
2023-04-22T14:20:10.969Z,9.90
2023-04-22T14:22:39.860Z,7.10
2023-04-22T14:25:09.434Z,6.20
2023-04-22T14:30:08.896Z,14.60
2023-04-22T14:32:38.430Z,7.60
2023-04-22T14:35:07.378Z,14.70
2023-04-22T14:37:36.364Z,5.60
2023-04-22T14:40:05.977Z,6.80
2023-04-22T14:42:35.936Z,4.20
2023-04-22T14:45:05.050Z,17.90
2023-04-22T14:47:33.551Z,7.80
2023-04-22T14:50:03.713Z,6.60
2023-04-22T14:52:33.340Z,5.70
2023-04-22T14:55:11.882Z,9.60
2023-04-22T14:57:50.276Z,5.50
2023-04-22T15:00:19.688Z,5.80
2023-04-22T15:02:48.324Z,6.60
2023-04-22T15:05:19.081Z,6.10
2023-04-22T15:07:48.111Z,9.50
2023-04-22T15:10:17.991Z,16.00
2023-04-22T15:12:46.592Z,8.30
2023-04-22T15:15:16.711Z,11.30
2023-04-22T15:17:46.501Z,10.50
2023-04-22T15:20:15.516Z,5.10
2023-04-22T15:22:44.165Z,13.00
2023-04-22T15:25:12.651Z,4.20
2023-04-22T15:27:41.429Z,7.80
2023-04-22T15:30:11.291Z,8.40
2023-04-22T15:32:40.328Z,8.20
2023-04-22T15:35:08.894Z,5.80
2023-04-22T15:37:39.241Z,12.50
2023-04-22T15:40:08.844Z,7.70
2023-04-22T15:42:38.307Z,8.10
2023-04-22T15:45:07.386Z,7.40
2023-04-22T15:47:38.554Z,12.40
2023-04-22T15:50:09.615Z,9.10
2023-04-22T15:52:38.919Z,19.60
2023-04-22T15:55:08.747Z,4.30
2023-04-22T15:57:38.575Z,6.60
2023-04-22T16:00:12.648Z,8.20
2023-04-22T16:02:56.982Z,7.50
2023-04-22T16:05:26.181Z,9.30
2023-04-22T16:07:55.140Z,7.90
2023-04-22T16:10:26.926Z,10.80
2023-04-22T16:12:57.072Z,8.70
2023-04-22T16:15:26.582Z,10.80
2023-04-22T16:17:56.900Z,9.80
2023-04-22T16:20:25.835Z,18.00
2023-04-22T16:22:55.906Z,9.70
2023-04-22T16:25:29.325Z,7.00
2023-04-22T16:27:57.958Z,17.80
2023-04-22T16:30:26.346Z,8.90
2023-04-22T16:32:54.731Z,12.30
2023-04-22T16:35:24.654Z,7.40
2023-04-22T16:37:53.062Z,13.30
2023-04-22T16:40:21.839Z,12.10
2023-04-22T16:42:50.676Z,11.40
2023-04-22T16:45:21.011Z,12.70
2023-04-22T16:47:49.678Z,9.90
2023-04-22T16:50:18.084Z,18.30
2023-04-22T16:52:50.714Z,10.70
2023-04-22T16:55:19.479Z,11.00
2023-04-22T16:57:50.754Z,12.80
2023-04-22T17:00:19.515Z,8.40
2023-04-22T17:02:48.802Z,8.90
2023-04-22T17:05:17.742Z,12.50
2023-04-22T17:07:46.906Z,12.90
2023-04-22T17:10:17.031Z,11.40
2023-04-22T17:12:47.476Z,14.90
2023-04-22T17:15:18.331Z,14.60
2023-04-22T17:17:48.394Z,17.70
2023-04-22T17:20:17.402Z,22.40
2023-04-22T17:22:46.211Z,14.60
2023-04-22T17:25:14.684Z,11.40
2023-04-22T17:27:44.905Z,19.50
2023-04-22T17:30:14.160Z,14.20
2023-04-22T17:32:42.933Z,19.40
2023-04-22T17:35:12.486Z,12.20
2023-04-22T17:37:46.094Z,10.40
2023-04-22T17:40:16.983Z,14.60
2023-04-22T17:42:49.150Z,12.00
2023-04-22T17:45:17.639Z,12.40
2023-04-22T17:47:47.743Z,10.50
2023-04-22T17:50:16.406Z,10.90
2023-04-22T17:52:47.061Z,10.70
2023-04-22T17:55:15.673Z,10.90
2023-04-22T17:57:45.647Z,15.80
2023-04-22T18:00:18.440Z,13.60
2023-04-22T18:02:47.077Z,14.80
2023-04-22T18:05:15.908Z,22.90
2023-04-22T18:07:45.338Z,20.80
2023-04-22T18:10:13.882Z,18.50
2023-04-22T18:12:42.557Z,17.50
2023-04-22T18:15:11.779Z,22.60
2023-04-22T18:17:43.661Z,26.50
2023-04-22T18:20:18.601Z,22.60
2023-04-22T18:22:49.708Z,30.30
2023-04-22T18:25:18.783Z,32.60
2023-04-22T18:27:47.935Z,20.70
2023-04-22T18:30:16.477Z,30.80
2023-04-22T18:32:45.716Z,16.70
2023-04-22T18:35:16.218Z,21.30
2023-04-22T18:37:45.007Z,21.10
2023-04-22T18:40:17.636Z,29.30
2023-04-22T18:42:48.050Z,27.10
2023-04-22T18:45:16.978Z,23.60
2023-04-22T18:47:47.202Z,35.80
2023-04-22T18:50:17.895Z,30.10
2023-04-22T18:52:46.623Z,42.90
2023-04-22T18:55:15.106Z,30.30
2023-04-22T18:57:43.749Z,32.70
2023-04-22T19:00:13.496Z,39.90
2023-04-22T19:02:47.623Z,43.40
2023-04-22T19:05:19.514Z,38.20
2023-04-22T19:07:47.987Z,50.10
2023-04-22T19:10:19.299Z,41.80
2023-04-22T19:12:47.762Z,32.60
2023-04-22T19:15:20.195Z,35.10
2023-04-22T19:20:22.615Z,36.50
2023-04-22T19:22:56.038Z,31.80
2023-04-22T19:25:24.832Z,32.30
2023-04-22T19:27:54.613Z,38.00
2023-04-22T19:30:30.163Z,32.30
2023-04-22T19:33:03.274Z,39.30
2023-04-22T19:35:35.795Z,38.80
2023-04-22T19:38:06.475Z,39.80
2023-04-22T19:40:38.854Z,27.50
2023-04-22T19:43:09.932Z,28.00
2023-04-22T19:45:39.248Z,29.00
2023-04-22T19:48:14.456Z,22.90
2023-04-22T19:50:44.020Z,28.90
2023-04-22T19:53:12.933Z,33.50
2023-04-22T19:55:43.296Z,34.60
2023-04-22T19:58:11.729Z,23.60
2023-04-22T20:00:40.821Z,24.40
2023-04-22T20:03:10.589Z,17.80
2023-04-22T20:05:40.667Z,17.60
2023-04-22T20:08:09.619Z,14.80
2023-04-22T20:10:38.613Z,22.60
2023-04-22T20:13:07.081Z,17.40
2023-04-22T20:15:37.815Z,22.60
2023-04-22T20:18:07.984Z,24.70
2023-04-22T20:20:40.002Z,11.80
2023-04-22T20:23:12.922Z,17.70
2023-04-22T20:25:44.432Z,11.10
2023-04-22T20:28:13.037Z,16.40
2023-04-22T20:30:41.667Z,10.40
2023-04-22T20:33:12.732Z,11.40
2023-04-22T20:35:42.566Z,12.00
2023-04-22T20:38:12.622Z,13.10
2023-04-22T20:40:40.994Z,22.20
2023-04-22T20:43:10.143Z,25.10
2023-04-22T20:45:38.634Z,15.20
2023-04-22T20:48:07.175Z,19.80
2023-04-22T20:50:36.517Z,12.20
2023-04-22T20:53:05.365Z,15.50
2023-04-22T20:55:36.325Z,10.10
2023-04-22T20:58:05.790Z,9.30
2023-04-22T21:00:34.505Z,12.40
2023-04-22T21:03:05.003Z,15.40
2023-04-22T21:05:45.238Z,18.00
2023-04-22T21:08:23.528Z,8.70
2023-04-22T21:10:53.541Z,7.40
2023-04-22T21:13:23.620Z,8.90
2023-04-22T21:15:56.549Z,13.10
2023-04-22T21:18:25.855Z,11.20
2023-04-22T21:20:55.597Z,7.30
2023-04-22T21:23:26.971Z,7.90
2023-04-22T21:25:56.064Z,8.30
2023-04-22T21:28:25.080Z,9.10
2023-04-22T21:30:54.471Z,7.30
2023-04-22T21:33:25.395Z,11.30
2023-04-22T21:35:53.925Z,13.20
2023-04-22T21:38:25.661Z,9.40
2023-04-22T21:40:54.100Z,12.00
2023-04-22T21:43:22.725Z,9.00
2023-04-22T21:45:51.272Z,10.00
2023-04-22T21:48:22.063Z,10.70
2023-04-22T21:50:52.377Z,7.90
2023-04-22T21:53:27.691Z,8.20
2023-04-22T21:55:56.550Z,16.80
2023-04-22T21:58:26.371Z,21.30
2023-04-22T22:00:56.791Z,12.50
2023-04-22T22:03:25.729Z,13.00
2023-04-22T22:05:56.128Z,9.10
2023-04-22T22:08:24.995Z,9.50
2023-04-22T22:10:53.883Z,8.80
2023-04-22T22:13:22.907Z,10.70
2023-04-22T22:15:53.550Z,14.40
2023-04-22T22:18:27.404Z,9.50
2023-04-22T22:20:55.855Z,13.40
2023-04-22T22:23:25.919Z,15.70
2023-04-22T22:25:55.835Z,14.70
2023-04-22T22:28:24.638Z,16.10
2023-04-22T22:30:53.365Z,11.50
2023-04-22T22:33:23.512Z,14.20
2023-04-22T22:35:51.762Z,11.90
2023-04-22T22:38:21.091Z,10.30
2023-04-22T22:40:49.397Z,19.90
2023-04-22T22:43:18.319Z,16.90
2023-04-22T22:45:47.280Z,10.20
2023-04-22T22:48:16.861Z,13.60
2023-04-22T22:50:46.814Z,10.10
2023-04-22T22:53:15.421Z,23.60
2023-04-22T22:55:43.943Z,11.10
2023-04-22T22:58:13.091Z,8.70
2023-04-22T23:03:13.390Z,10.20
2023-04-22T23:05:42.163Z,11.80
2023-04-22T23:08:10.716Z,19.50
2023-04-22T23:10:39.230Z,15.40
2023-04-22T23:13:07.581Z,15.00
2023-04-22T23:15:36.825Z,15.30
2023-04-22T23:18:06.845Z,12.30
2023-04-22T23:20:37.053Z,19.40
2023-04-22T23:23:05.858Z,10.10
2023-04-22T23:25:34.985Z,16.10
2023-04-22T23:28:03.571Z,10.50
2023-04-22T23:30:33.012Z,9.10
2023-04-22T23:33:05.508Z,13.80
2023-04-22T23:35:35.481Z,13.50
2023-04-22T23:38:04.465Z,10.30
2023-04-22T23:40:32.828Z,9.10
2023-04-22T23:43:01.641Z,12.50
2023-04-22T23:45:31.045Z,8.80
2023-04-22T23:48:00.014Z,8.60
2023-04-22T23:50:28.499Z,8.60
2023-04-22T23:52:57.530Z,12.10
2023-04-22T23:55:26.234Z,9.40
2023-04-22T23:57:56.649Z,11.10
